Time;durP1;ratioP1;P1;durP2;ratioP2;P2;SDS_P1;SDS_P2;PMS_P1;PMS_P2;Temp;Humidity;BMP_temperature;BMP_pressure;BME280_temperature;BME280_humidity;BME280_pressure;Samples;Min_cycle;Max_cycle;Signal;HPM_P1;HPM_P2
2022/01/04 00:01:58;;;;;;;21.38;8.35;;;7.80;99.90;;;;;;4999145;28;20041;-72
2022/01/04 00:04:25;;;;;;;20.17;7.63;;;7.90;99.90;;;;;;4982838;28;20026;-72
2022/01/04 00:06:50;;;;;;;23.42;8.27;;;7.80;99.90;;;;;;4997171;28;20599;-72
2022/01/04 00:09:16;;;;;;;25.52;8.57;;;7.80;99.90;;;;;;4999795;28;20042;-72
2022/01/04 00:13:21;;;;;;;22.50;7.80;;;7.80;99.90;;;;;;4978935;28;20125;-72
2022/01/04 00:14:30;;;;;;;27.20;8.70;;;7.80;99.90;;;;;;4998203;28;20053;-72
2022/01/04 00:16:56;;;;;;;28.15;8.40;;;7.80;99.90;;;;;;4981831;28;20034;-71
2022/01/04 00:19:22;;;;;;;22.17;8.32;;;7.80;99.90;;;;;;4999039;28;20124;-72
2022/01/04 00:21:48;;;;;;;25.38;8.48;;;7.80;99.90;;;;;;4998269;28;20044;-71
2022/01/04 00:24:14;;;;;;;21.13;7.90;;;7.80;99.90;;;;;;4997441;28;20395;-71
2022/01/04 00:26:39;;;;;;;21.13;8.55;;;7.80;99.90;;;;;;4980481;28;20571;-72
2022/01/04 00:29:05;;;;;;;23.60;8.85;;;7.80;99.90;;;;;;4994304;28;20032;-71
2022/01/04 00:31:31;;;;;;;21.02;8.63;;;7.80;99.90;;;;;;5001113;28;20030;-72
2022/01/04 00:33:56;;;;;;;27.20;10.05;;;7.80;99.90;;;;;;4999094;28;20034;-72
2022/01/04 00:36:22;;;;;;;25.27;9.02;;;7.80;99.90;;;;;;4998130;28;20022;-72
2022/01/04 00:38:48;;;;;;;26.98;9.88;;;7.70;99.90;;;;;;4998535;28;20114;-71
2022/01/04 00:41:14;;;;;;;25.33;9.88;;;7.70;99.90;;;;;;4997840;28;20030;-71
2022/01/04 00:43:39;;;;;;;19.33;8.02;;;7.70;99.90;;;;;;4996933;28;20061;-72
2022/01/04 00:46:05;;;;;;;23.90;8.90;;;7.70;99.90;;;;;;4996817;28;20021;-71
2022/01/04 00:50:57;;;;;;;23.85;8.80;;;7.70;99.90;;;;;;4999788;28;20121;-71
2022/01/04 00:53:22;;;;;;;17.77;8.25;;;7.80;99.90;;;;;;4998196;28;20038;-71
2022/01/04 00:55:48;;;;;;;23.58;8.20;;;7.70;99.90;;;;;;4980348;28;20034;-71
2022/01/04 00:58:14;;;;;;;30.05;9.77;;;7.70;99.90;;;;;;4998206;28;20419;-71
2022/01/04 01:00:40;;;;;;;21.13;9.65;;;7.70;99.90;;;;;;4996943;28;20117;-72
2022/01/04 01:03:06;;;;;;;23.15;9.27;;;7.70;99.90;;;;;;4998959;28;20034;-71
2022/01/04 01:05:33;;;;;;;21.35;9.63;;;7.70;99.90;;;;;;4995283;28;20054;-72
2022/01/04 01:07:59;;;;;;;24.58;9.40;;;7.70;99.90;;;;;;4980480;28;20030;-72
2022/01/04 01:12:55;;;;;;;16.20;8.75;;;7.70;99.90;;;;;;4996802;28;20032;-71
2022/01/04 01:15:24;;;;;;;32.20;9.75;;;7.70;99.90;;;;;;4999112;28;20108;-72
2022/01/04 01:17:50;;;;;;;19.17;8.70;;;7.70;99.90;;;;;;4997530;28;20030;-72
2022/01/04 01:20:17;;;;;;;19.33;9.40;;;7.70;99.90;;;;;;4996600;28;20117;-71
2022/01/04 01:22:43;;;;;;;22.70;9.45;;;7.70;99.90;;;;;;4962099;28;20037;-72
2022/01/04 01:25:11;;;;;;;26.52;9.50;;;7.70;99.90;;;;;;4996302;28;20037;-72
2022/01/04 01:27:36;;;;;;;26.25;9.95;;;7.80;99.90;;;;;;4996065;28;20084;-72
2022/01/04 01:30:06;;;;;;;21.98;9.25;;;7.80;99.90;;;;;;4977443;28;20383;-72
2022/01/04 01:32:32;;;;;;;21.27;8.85;;;7.80;99.90;;;;;;4979054;28;20034;-72
2022/01/04 01:34:57;;;;;;;29.40;9.55;;;7.80;99.90;;;;;;4960366;28;20034;-71
2022/01/04 01:37:23;;;;;;;26.15;9.52;;;7.80;99.90;;;;;;4995585;28;20058;-71
2022/01/04 01:39:48;;;;;;;22.90;10.20;;;7.80;99.90;;;;;;4994818;28;20048;-72
2022/01/04 01:42:14;;;;;;;19.10;8.30;;;7.80;99.90;;;;;;4998325;28;20128;-73
2022/01/04 01:44:40;;;;;;;20.58;8.75;;;7.80;99.90;;;;;;4997960;28;20503;-71
2022/01/04 01:47:06;;;;;;;24.90;9.38;;;7.80;99.90;;;;;;4995706;28;20034;-71
2022/01/04 01:49:32;;;;;;;19.15;8.45;;;7.80;99.90;;;;;;4997947;28;20061;-72
2022/01/04 01:51:59;;;;;;;21.55;8.18;;;7.80;99.90;;;;;;4988542;28;20381;-71
2022/01/04 01:54:25;;;;;;;23.73;8.20;;;7.80;99.90;;;;;;4997714;28;20025;-72
2022/01/04 01:56:52;;;;;;;22.08;8.68;;;7.80;99.90;;;;;;4980913;28;20069;-72
2022/01/04 01:59:17;;;;;;;21.17;8.77;;;7.80;99.90;;;;;;4995624;28;20503;-72
2022/01/04 02:01:44;;;;;;;23.02;8.68;;;7.80;99.90;;;;;;4998195;28;20076;-71
2022/01/04 02:04:09;;;;;;;25.60;9.70;;;7.80;99.90;;;;;;4997852;28;20080;-71
2022/01/04 02:06:36;;;;;;;25.08;8.80;;;7.80;99.90;;;;;;4997431;28;20022;-71
2022/01/04 02:09:03;;;;;;;22.92;8.55;;;7.80;99.90;;;;;;4995928;28;20109;-73
2022/01/04 02:11:30;;;;;;;18.85;9.38;;;7.80;99.90;;;;;;4995385;28;20086;-71
2022/01/04 02:13:59;;;;;;;21.33;9.05;;;7.80;99.90;;;;;;4995943;28;20046;-72
2022/01/04 02:16:26;;;;;;;25.63;9.90;;;7.80;99.90;;;;;;4996496;28;20106;-72
2022/01/04 02:19:01;;;;;;;17.85;8.68;;;7.90;99.90;;;;;;4997572;28;20085;-71
2022/01/04 02:21:27;;;;;;;19.77;9.18;;;7.90;99.90;;;;;;4978079;28;20097;-72
2022/01/04 02:23:52;;;;;;;24.75;9.00;;;7.90;99.90;;;;;;5000431;28;20038;-71
2022/01/04 02:26:18;;;;;;;18.70;9.27;;;7.90;99.90;;;;;;4992808;28;20049;-72
2022/01/04 02:28:46;;;;;;;24.15;9.75;;;7.90;99.90;;;;;;4995845;28;20453;-71
2022/01/04 02:31:12;;;;;;;16.90;9.43;;;7.90;99.90;;;;;;4997429;28;20033;-72
2022/01/04 02:33:37;;;;;;;24.95;10.50;;;7.90;99.90;;;;;;4996699;28;20019;-71
2022/01/04 02:36:03;;;;;;;26.40;10.82;;;7.90;99.90;;;;;;4976724;28;20028;-71
2022/01/04 02:38:29;;;;;;;19.17;10.65;;;7.90;99.90;;;;;;4978707;28;20021;-71
2022/01/04 02:40:55;;;;;;;19.05;9.55;;;7.80;99.90;;;;;;4995749;28;20026;-71
2022/01/04 02:43:20;;;;;;;26.73;10.75;;;7.90;99.90;;;;;;4992946;28;20025;-71
2022/01/04 02:45:46;;;;;;;26.55;11.15;;;7.90;99.90;;;;;;4994868;28;20030;-71
2022/01/04 02:48:11;;;;;;;21.33;10.27;;;7.80;99.90;;;;;;4995289;28;20030;-71
2022/01/04 02:50:37;;;;;;;25.58;10.50;;;7.90;99.90;;;;;;4994399;28;20030;-71
2022/01/04 02:53:03;;;;;;;23.27;10.35;;;7.80;99.90;;;;;;4996354;28;20043;-72
2022/01/04 02:55:28;;;;;;;29.17;12.00;;;7.90;99.90;;;;;;4999958;28;20066;-71
2022/01/04 02:57:54;;;;;;;24.52;10.48;;;7.90;99.90;;;;;;4992634;28;20471;-71
2022/01/04 03:00:20;;;;;;;23.70;11.05;;;7.80;99.90;;;;;;4996839;28;20029;-72
2022/01/04 03:02:46;;;;;;;26.27;11.43;;;7.80;99.90;;;;;;4991532;28;20089;-72
2022/01/04 03:05:12;;;;;;;21.50;11.18;;;7.80;99.90;;;;;;4996341;28;20029;-72
2022/01/04 03:07:38;;;;;;;27.75;11.50;;;7.80;99.90;;;;;;4976665;28;20104;-72
2022/01/04 03:10:07;;;;;;;28.48;11.43;;;7.80;99.90;;;;;;4976966;28;20382;-72
2022/01/04 03:12:34;;;;;;;26.80;12.32;;;7.80;99.90;;;;;;4995891;28;20117;-72
2022/01/04 03:15:01;;;;;;;25.50;11.73;;;7.80;99.90;;;;;;4995490;28;20030;-71
2022/01/04 03:17:26;;;;;;;20.83;11.98;;;7.90;99.90;;;;;;4996207;28;20121;-71
2022/01/04 03:19:52;;;;;;;33.72;13.98;;;7.80;99.90;;;;;;4992744;28;20101;-71
2022/01/04 03:22:18;;;;;;;29.50;11.60;;;7.80;99.90;;;;;;4997199;28;20093;-72
2022/01/04 03:24:43;;;;;;;23.33;11.90;;;7.80;99.90;;;;;;4994749;28;20045;-72
2022/01/04 03:27:09;;;;;;;27.15;13.30;;;7.90;99.90;;;;;;4999198;28;20065;-72
2022/01/04 03:29:35;;;;;;;25.63;12.65;;;7.80;99.90;;;;;;4993424;28;20034;-71
2022/01/04 03:32:00;;;;;;;31.42;12.65;;;7.80;99.90;;;;;;4995920;28;20037;-71
2022/01/04 03:34:26;;;;;;;30.08;13.73;;;7.80;99.90;;;;;;4996864;28;20037;-71
2022/01/04 03:36:52;;;;;;;27.40;12.20;;;7.80;99.90;;;;;;4996884;28;20061;-72
2022/01/04 03:39:17;;;;;;;26.88;11.93;;;7.80;99.90;;;;;;4993760;28;20319;-72
2022/01/04 03:41:45;;;;;;;30.58;13.02;;;7.80;99.90;;;;;;4995594;28;20069;-71
2022/01/04 03:44:19;;;;;;;26.08;12.93;;;7.80;99.90;;;;;;4997794;28;20038;-71
2022/01/04 03:46:47;;;;;;;34.22;14.05;;;7.80;99.90;;;;;;4978629;28;20676;-72
2022/01/04 03:49:13;;;;;;;31.55;12.48;;;7.80;99.90;;;;;;4996680;28;20399;-72
2022/01/04 03:51:38;;;;;;;25.60;13.13;;;7.70;99.90;;;;;;4999481;28;20030;-72
2022/01/04 03:54:04;;;;;;;36.15;14.30;;;7.70;99.90;;;;;;5000071;28;20030;-72
2022/01/04 03:56:30;;;;;;;32.17;13.40;;;7.70;99.90;;;;;;4998699;28;20092;-72
2022/01/04 03:58:56;;;;;;;28.17;13.40;;;7.70;99.90;;;;;;4999907;28;20034;-72
2022/01/04 04:01:21;;;;;;;29.98;13.45;;;7.70;99.90;;;;;;4998455;28;20030;-71
2022/01/04 04:03:47;;;;;;;32.85;13.55;;;7.70;99.90;;;;;;4999778;28;20026;-71
2022/01/04 04:06:13;;;;;;;29.20;13.20;;;7.70;99.90;;;;;;4961303;28;20150;-71
2022/01/04 04:08:39;;;;;;;29.50;13.80;;;7.70;99.90;;;;;;4997289;28;20503;-72
2022/01/04 04:11:05;;;;;;;28.55;12.85;;;7.80;99.90;;;;;;4997228;28;20112;-71
2022/01/04 04:13:31;;;;;;;32.70;15.18;;;7.70;99.90;;;;;;4977992;28;20038;-71
2022/01/04 04:15:56;;;;;;;25.67;13.75;;;7.70;99.90;;;;;;4996389;28;20064;-72
2022/01/04 04:18:22;;;;;;;25.02;13.32;;;7.70;99.90;;;;;;4996464;28;20034;-73
2022/01/04 04:20:48;;;;;;;33.38;13.82;;;7.70;99.90;;;;;;4994314;28;20046;-72
2022/01/04 04:23:13;;;;;;;33.42;14.52;;;7.80;99.90;;;;;;4999921;28;20038;-71
2022/01/04 04:25:40;;;;;;;28.67;14.20;;;7.80;99.90;;;;;;4977766;28;20033;-71
2022/01/04 04:28:05;;;;;;;28.00;13.23;;;7.80;99.90;;;;;;4979594;28;20026;-72
2022/01/04 04:30:32;;;;;;;27.88;13.07;;;7.80;99.90;;;;;;4979734;28;20117;-71
2022/01/04 04:32:57;;;;;;;33.67;14.27;;;7.70;99.90;;;;;;4997227;28;20038;-72
2022/01/04 04:35:23;;;;;;;36.83;14.70;;;7.70;99.90;;;;;;4997783;28;20030;-71
2022/01/04 04:37:49;;;;;;;31.08;14.93;;;7.70;99.90;;;;;;4977989;28;20444;-72
2022/01/04 04:40:15;;;;;;;33.90;15.15;;;7.60;99.90;;;;;;5002022;28;20037;-72
2022/01/04 04:42:41;;;;;;;32.33;14.95;;;7.60;99.90;;;;;;4978674;28;20104;-71
2022/01/04 04:45:08;;;;;;;30.98;15.38;;;7.60;99.90;;;;;;4997701;28;20498;-71
2022/01/04 04:47:34;;;;;;;28.10;14.77;;;7.60;99.90;;;;;;4999833;28;20027;-71
2022/01/04 04:50:00;;;;;;;35.25;16.25;;;7.70;99.90;;;;;;4999503;28;20507;-72
2022/01/04 04:52:26;;;;;;;33.25;15.23;;;7.70;99.90;;;;;;4997050;28;20045;-70
2022/01/04 04:54:51;;;;;;;34.10;15.40;;;7.70;99.90;;;;;;4999425;28;20035;-71
2022/01/04 04:57:17;;;;;;;25.25;13.35;;;7.70;99.90;;;;;;4982281;28;20476;-70
2022/01/04 04:59:43;;;;;;;29.75;14.68;;;7.80;99.90;;;;;;5000445;28;20956;-71
2022/01/04 05:02:08;;;;;;;30.98;14.70;;;7.80;99.90;;;;;;5002133;28;20067;-71
2022/01/04 05:04:35;;;;;;;30.30;15.15;;;7.70;99.90;;;;;;4994324;28;20278;-71
2022/01/04 05:07:01;;;;;;;36.97;15.15;;;7.70;99.90;;;;;;4999333;28;20032;-74
2022/01/04 05:09:27;;;;;;;29.08;14.85;;;7.70;99.90;;;;;;4999378;28;20100;-73
2022/01/04 05:11:52;;;;;;;31.92;15.23;;;7.70;99.90;;;;;;4997393;28;20058;-71
2022/01/04 05:14:18;;;;;;;37.50;14.82;;;7.70;99.90;;;;;;5002926;28;20116;-71
2022/01/04 05:16:44;;;;;;;30.75;15.18;;;7.70;99.90;;;;;;5000832;28;20117;-73
2022/01/04 05:19:09;;;;;;;37.65;15.43;;;7.70;99.90;;;;;;5000770;28;20034;-72
2022/01/04 05:21:35;;;;;;;31.95;15.13;;;7.60;99.90;;;;;;4980029;28;20084;-71
2022/01/04 05:24:01;;;;;;;30.73;14.65;;;7.70;99.90;;;;;;5001719;28;20749;-71
2022/01/04 05:26:27;;;;;;;33.33;15.88;;;7.70;99.90;;;;;;4995230;28;20489;-71
2022/01/04 05:28:52;;;;;;;36.97;15.75;;;7.70;99.90;;;;;;4996089;28;20110;-71
2022/01/04 05:31:18;;;;;;;34.10;15.38;;;7.70;99.90;;;;;;4997681;28;20030;-71
2022/01/04 05:33:44;;;;;;;30.60;15.15;;;7.70;99.90;;;;;;4977738;28;20028;-71
2022/01/04 05:36:09;;;;;;;33.25;15.05;;;7.80;99.90;;;;;;4978235;28;20901;-71
2022/01/04 05:38:35;;;;;;;38.95;15.80;;;7.80;99.90;;;;;;4996306;28;20038;-72
2022/01/04 05:41:00;;;;;;;29.27;15.65;;;7.80;99.90;;;;;;4997276;28;20030;-71
2022/01/04 05:43:26;;;;;;;41.72;15.98;;;7.80;99.90;;;;;;4998826;28;20583;-71
2022/01/04 05:45:52;;;;;;;37.92;16.65;;;7.80;99.90;;;;;;4993357;28;20026;-72
2022/01/04 05:48:20;;;;;;;35.33;17.08;;;7.80;99.90;;;;;;4996710;28;20026;-71
2022/01/04 05:50:49;;;;;;;31.67;15.85;;;7.70;99.90;;;;;;4997476;28;20058;-71
2022/01/04 05:53:15;;;;;;;37.83;17.30;;;7.70;99.90;;;;;;4998794;28;20037;-71
2022/01/04 05:55:40;;;;;;;38.88;16.95;;;7.70;99.90;;;;;;4981252;28;20026;-72
2022/01/04 05:58:06;;;;;;;31.77;14.88;;;7.70;99.90;;;;;;4997830;28;20030;-72
2022/01/04 06:00:32;;;;;;;36.00;16.58;;;7.80;99.90;;;;;;4979070;28;20506;-72
2022/01/04 06:03:01;;;;;;;35.42;16.38;;;7.80;99.90;;;;;;4992579;28;20088;-71
2022/01/04 06:05:30;;;;;;;38.35;17.55;;;7.80;99.90;;;;;;4999274;28;20029;-71
2022/01/04 06:07:56;;;;;;;38.00;17.77;;;7.70;99.90;;;;;;4996999;28;20584;-72
2022/01/04 06:10:22;;;;;;;34.25;16.70;;;7.70;99.90;;;;;;4999282;28;20030;-71
2022/01/04 06:15:18;;;;;;;31.92;15.57;;;7.70;99.90;;;;;;4998812;28;20038;-71
2022/01/04 06:17:49;;;;;;;40.08;17.92;;;7.70;99.90;;;;;;4995672;28;20046;-72
2022/01/04 06:20:21;;;;;;;34.58;17.77;;;7.70;99.90;;;;;;4994711;28;20027;-71
2022/01/04 06:22:51;;;;;;;37.47;17.55;;;7.70;99.90;;;;;;4996509;28;20491;-72
2022/01/04 06:25:18;;;;;;;36.83;17.60;;;7.70;99.90;;;;;;4999444;28;20034;-72
2022/01/04 06:27:47;;;;;;;40.53;19.10;;;7.70;99.90;;;;;;4998851;28;20101;-71
2022/01/04 06:30:17;;;;;;;42.83;18.92;;;7.70;99.90;;;;;;4996417;28;20116;-71
2022/01/04 06:32:44;;;;;;;38.28;18.15;;;7.70;99.90;;;;;;4996711;28;20025;-71
2022/01/04 06:35:10;;;;;;;39.08;19.50;;;7.70;99.90;;;;;;4995281;28;20041;-71
2022/01/04 06:37:37;;;;;;;44.13;19.35;;;7.70;99.90;;;;;;4982706;28;20388;-71
2022/01/04 06:40:03;;;;;;;40.38;17.95;;;7.70;99.90;;;;;;4998401;28;20105;-72
2022/01/04 06:42:29;;;;;;;35.72;19.20;;;7.70;99.90;;;;;;4999302;28;20046;-71
2022/01/04 06:44:55;;;;;;;44.35;20.42;;;7.70;99.90;;;;;;4996038;28;20042;-72
2022/01/04 06:47:20;;;;;;;38.90;19.98;;;7.70;99.90;;;;;;4998092;28;20021;-72
2022/01/04 06:49:46;;;;;;;32.92;17.83;;;7.70;99.90;;;;;;4996360;28;20030;-71
2022/01/04 06:52:11;;;;;;;42.88;20.55;;;7.70;99.90;;;;;;4997862;28;20428;-72
2022/01/04 06:54:37;;;;;;;40.38;19.05;;;7.60;99.90;;;;;;4998428;28;20034;-71
2022/01/04 06:57:04;;;;;;;45.42;19.38;;;7.60;99.90;;;;;;4996061;28;20034;-72
2022/01/04 06:59:29;;;;;;;38.55;19.35;;;7.60;99.90;;;;;;4996214;28;20032;-71
2022/01/04 07:01:55;;;;;;;43.70;18.98;;;7.60;99.90;;;;;;4998540;28;20030;-72
2022/01/04 07:04:21;;;;;;;42.50;19.92;;;7.60;99.90;;;;;;4979026;28;20558;-71
2022/01/04 07:06:46;;;;;;;43.25;20.42;;;7.60;99.90;;;;;;4999162;28;20430;-72
2022/01/04 07:09:12;;;;;;;43.22;18.63;;;7.70;99.90;;;;;;4981935;28;20672;-71
2022/01/04 07:11:38;;;;;;;44.60;19.65;;;7.60;99.90;;;;;;4998500;28;20030;-72
2022/01/04 07:14:03;;;;;;;49.60;20.58;;;7.70;99.90;;;;;;4998192;28;20045;-72
2022/01/04 07:16:30;;;;;;;49.30;20.55;;;7.60;99.90;;;;;;4979245;28;20026;-73
2022/01/04 07:18:55;;;;;;;43.20;19.88;;;7.60;99.90;;;;;;4997415;28;20125;-72
2022/01/04 07:21:21;;;;;;;43.95;19.20;;;7.60;99.90;;;;;;4995012;28;20987;-70
2022/01/04 07:23:50;;;;;;;42.15;19.88;;;7.60;99.90;;;;;;5005842;28;20075;-73
2022/01/04 07:26:17;;;;;;;38.10;18.77;;;7.60;99.90;;;;;;5000518;28;20018;-70
2022/01/04 07:28:45;;;;;;;53.13;20.90;;;7.60;99.90;;;;;;4982659;28;20634;-70
2022/01/04 07:31:13;;;;;;;48.47;18.75;;;7.60;99.90;;;;;;4998641;28;20048;-70
2022/01/04 07:33:39;;;;;;;43.75;18.50;;;7.60;99.90;;;;;;4980558;28;20048;-73
2022/01/04 07:36:06;;;;;;;41.13;18.52;;;7.70;99.90;;;;;;5002672;28;20031;-73
2022/01/04 07:38:33;;;;;;;37.80;17.98;;;7.70;99.90;;;;;;5009659;28;20057;-72
2022/01/04 07:40:58;;;;;;;36.63;19.92;;;7.70;99.90;;;;;;5000589;28;20042;-72
2022/01/04 07:43:24;;;;;;;36.53;17.88;;;7.70;99.90;;;;;;4984416;28;20030;-73
2022/01/04 07:45:50;;;;;;;39.17;19.20;;;7.70;99.90;;;;;;5000402;28;20080;-69
2022/01/04 07:48:15;;;;;;;36.15;18.73;;;7.80;99.90;;;;;;4999319;28;20096;-72
2022/01/04 07:50:41;;;;;;;44.17;19.92;;;7.80;99.90;;;;;;5000495;28;20345;-73
2022/01/04 07:53:08;;;;;;;41.85;18.98;;;7.70;99.90;;;;;;4998863;28;20042;-73
2022/01/04 07:55:34;;;;;;;42.08;18.50;;;7.70;99.90;;;;;;4996381;28;20660;-72
2022/01/04 07:58:00;;;;;;;45.22;19.55;;;7.80;99.90;;;;;;4996113;28;20034;-73
2022/01/04 08:00:26;;;;;;;41.40;19.27;;;7.70;99.90;;;;;;4985826;28;20488;-73
2022/01/04 08:02:53;;;;;;;43.35;19.73;;;7.70;99.90;;;;;;5000719;28;20550;-73
2022/01/04 08:05:20;;;;;;;40.17;19.75;;;7.70;99.90;;;;;;5001025;28;20018;-73
2022/01/04 08:07:46;;;;;;;38.00;18.48;;;7.70;99.90;;;;;;4998302;28;20042;-72
2022/01/04 08:10:12;;;;;;;41.95;18.30;;;7.80;99.90;;;;;;5000798;28;20048;-72
2022/01/04 08:12:39;;;;;;;40.10;18.30;;;7.80;99.90;;;;;;4998424;28;20160;-72
2022/01/04 08:15:06;;;;;;;39.25;19.33;;;7.80;99.90;;;;;;4978913;28;20026;-71
2022/01/04 08:17:32;;;;;;;35.85;17.77;;;7.90;99.90;;;;;;5001297;28;20033;-71
2022/01/04 08:19:59;;;;;;;37.47;18.73;;;7.90;99.90;;;;;;4998476;28;20086;-72
2022/01/04 08:22:25;;;;;;;36.80;18.95;;;7.90;99.90;;;;;;4997641;28;20054;-73
2022/01/04 08:24:50;;;;;;;39.00;18.48;;;7.80;99.90;;;;;;4983151;28;20069;-73
2022/01/04 08:27:17;;;;;;;37.10;16.90;;;7.90;99.90;;;;;;4982380;28;20019;-72
2022/01/04 08:29:42;;;;;;;35.30;17.70;;;7.90;99.90;;;;;;4996631;28;20461;-72
2022/01/04 08:32:08;;;;;;;38.95;18.17;;;7.90;99.90;;;;;;4998822;28;20033;-73
2022/01/04 08:34:34;;;;;;;34.55;17.13;;;7.90;99.90;;;;;;5001715;28;20022;-72
2022/01/04 08:37:00;;;;;;;33.33;17.95;;;7.80;99.90;;;;;;4984197;28;20100;-71
2022/01/04 08:39:26;;;;;;;39.47;19.05;;;7.90;99.90;;;;;;4991634;28;20034;-71
2022/01/04 08:41:55;;;;;;;32.70;17.75;;;7.90;99.90;;;;;;4972723;28;20472;-74
2022/01/04 08:44:22;;;;;;;41.78;18.20;;;7.90;99.90;;;;;;4978329;28;20033;-73
2022/01/04 08:46:48;;;;;;;40.22;18.77;;;7.90;99.90;;;;;;4997940;28;20030;-74
2022/01/04 08:49:13;;;;;;;34.20;18.10;;;7.90;99.90;;;;;;4999502;28;20025;-74
2022/01/04 08:51:39;;;;;;;34.65;18.55;;;7.90;99.90;;;;;;4996072;28;20442;-74
2022/01/04 08:54:06;;;;;;;37.17;18.60;;;7.90;99.90;;;;;;4996313;28;20031;-73
2022/01/04 08:56:32;;;;;;;31.70;18.08;;;7.90;99.90;;;;;;4995107;28;20037;-73
2022/01/04 08:58:59;;;;;;;33.33;17.77;;;7.90;99.90;;;;;;4996933;28;20025;-74
2022/01/04 09:01:25;;;;;;;38.22;18.27;;;8.00;99.90;;;;;;4996800;28;20023;-74
2022/01/04 09:03:51;;;;;;;33.65;18.77;;;8.00;99.90;;;;;;4977837;28;20457;-74
2022/01/04 09:06:17;;;;;;;46.08;20.92;;;7.90;99.90;;;;;;5001172;28;20029;-73
2022/01/04 09:08:43;;;;;;;36.08;19.58;;;7.90;99.90;;;;;;4999189;28;20022;-73
2022/01/04 09:11:10;;;;;;;38.83;19.13;;;7.90;99.90;;;;;;4996817;28;20109;-73
2022/01/04 09:13:40;;;;;;;39.78;20.60;;;7.90;99.90;;;;;;5001351;28;20484;-73
2022/01/04 09:18:49;;;;;;;36.15;18.27;;;7.90;99.90;;;;;;5000067;28;20034;-75
2022/01/04 09:21:23;;;;;;;34.38;17.98;;;7.90;99.90;;;;;;4997878;28;20042;-74
2022/01/04 09:23:50;;;;;;;41.47;19.55;;;7.90;99.90;;;;;;4998618;28;20117;-72
2022/01/04 09:26:18;;;;;;;38.60;19.17;;;8.00;99.90;;;;;;4983868;28;20407;-74
2022/01/04 09:28:44;;;;;;;31.38;17.55;;;8.00;99.90;;;;;;4997813;28;20077;-72
2022/01/04 09:31:11;;;;;;;31.60;18.05;;;8.00;99.90;;;;;;4993835;28;20089;-75
2022/01/04 09:33:37;;;;;;;38.80;18.75;;;8.00;99.90;;;;;;4996312;28;20433;-74
2022/01/04 09:36:04;;;;;;;34.42;18.90;;;8.00;99.90;;;;;;4996485;28;20038;-74
2022/01/04 09:38:30;;;;;;;32.78;18.08;;;8.00;99.90;;;;;;4997943;28;20960;-73
2022/01/04 09:40:59;;;;;;;32.80;17.38;;;8.00;99.90;;;;;;4995602;28;20056;-74
2022/01/04 09:43:25;;;;;;;34.17;18.60;;;8.00;99.90;;;;;;4993369;28;20105;-76
2022/01/04 09:45:52;;;;;;;34.63;16.70;;;8.00;99.90;;;;;;4976591;28;20038;-75
2022/01/04 09:48:19;;;;;;;37.42;18.30;;;8.10;99.90;;;;;;4996449;28;20384;-73
2022/01/04 09:50:46;;;;;;;29.35;17.20;;;8.10;99.90;;;;;;4997826;28;20046;-74
2022/01/04 09:53:19;;;;;;;32.17;17.48;;;8.10;99.90;;;;;;4966091;28;20030;-75
2022/01/04 09:55:47;;;;;;;34.58;18.02;;;8.20;99.90;;;;;;4997428;28;20041;-74
2022/01/04 09:58:13;;;;;;;35.72;18.13;;;8.20;99.90;;;;;;5004542;28;20022;-74
2022/01/04 10:00:39;;;;;;;34.47;19.15;;;8.10;99.90;;;;;;5000863;28;20407;-73
2022/01/04 10:03:25;;;;;;;36.45;17.45;;;8.20;99.90;;;;;;4998272;28;20027;-72
2022/01/04 10:06:00;;;;;;;31.70;18.55;;;8.20;99.90;;;;;;4979815;28;20113;-73
2022/01/04 10:08:26;;;;;;;34.20;16.92;;;8.20;99.90;;;;;;4995967;28;20030;-73
2022/01/04 10:11:02;;;;;;;31.77;15.98;;;8.20;99.90;;;;;;4979180;28;20101;-73
2022/01/04 10:13:30;;;;;;;35.58;18.17;;;8.20;99.90;;;;;;4994584;28;20065;-74
2022/01/04 10:15:56;;;;;;;32.92;16.63;;;8.30;99.90;;;;;;4992849;28;20030;-74
2022/01/04 10:18:25;;;;;;;32.97;16.00;;;8.30;99.90;;;;;;4998141;28;20084;-74
2022/01/04 10:21:10;;;;;;;30.02;15.98;;;8.30;99.90;;;;;;4994793;28;20533;-75
2022/01/04 10:23:52;;;;;;;31.85;16.73;;;8.30;99.90;;;;;;4979758;28;20029;-71
2022/01/04 10:26:37;;;;;;;29.70;16.90;;;8.30;99.90;;;;;;4997633;28;20141;-74
2022/01/04 10:29:24;;;;;;;29.23;17.20;;;8.30;99.90;;;;;;4994906;28;20058;-73
2022/01/04 10:31:51;;;;;;;33.60;17.27;;;8.20;99.90;;;;;;4994297;28;20117;-76
2022/01/04 10:34:16;;;;;;;37.83;17.77;;;8.20;99.90;;;;;;4995664;28;20030;-75
2022/01/04 10:36:44;;;;;;;41.67;19.05;;;8.20;99.90;;;;;;4997418;28;20021;-74
2022/01/04 10:39:10;;;;;;;35.60;16.98;;;8.10;99.90;;;;;;4998063;28;20015;-75
2022/01/04 10:41:36;;;;;;;35.40;18.20;;;8.10;99.90;;;;;;4995834;28;20026;-74
2022/01/04 10:44:09;;;;;;;29.08;14.30;;;8.10;99.90;;;;;;4994905;28;20059;-74
2022/01/04 10:46:43;;;;;;;24.80;11.88;;;8.00;99.90;;;;;;4996334;28;20018;-75
2022/01/04 10:49:20;;;;;;;18.23;9.57;;;7.90;99.90;;;;;;4990174;28;20034;-74
2022/01/04 10:52:07;;;;;;;14.52;6.93;;;7.90;99.90;;;;;;4974944;28;20548;-73
2022/01/04 10:54:33;;;;;;;14.63;7.53;;;7.80;99.90;;;;;;4988552;28;20707;-74
2022/01/04 10:57:06;;;;;;;21.15;7.70;;;7.80;99.90;;;;;;4993812;28;20050;-74
2022/01/04 10:59:32;;;;;;;14.63;6.38;;;7.70;99.90;;;;;;4991650;28;20062;-71
2022/01/04 11:01:58;;;;;;;15.52;6.80;;;7.60;99.90;;;;;;4990497;28;20235;-72
2022/01/04 11:04:24;;;;;;;14.27;7.18;;;7.60;99.90;;;;;;4992579;28;20053;-72
2022/01/04 11:06:56;;;;;;;19.88;8.80;;;7.60;99.90;;;;;;4995281;28;20026;-71
2022/01/04 11:09:22;;;;;;;16.63;7.95;;;7.60;99.90;;;;;;4994621;28;20030;-74
2022/01/04 11:11:48;;;;;;;25.45;12.73;;;7.50;99.90;;;;;;4978066;28;20382;-75
2022/01/04 11:14:14;;;;;;;26.48;13.48;;;7.50;99.90;;;;;;4963883;28;20483;-74
2022/01/04 11:16:41;;;;;;;29.60;13.82;;;7.50;99.90;;;;;;4997745;28;20031;-73
2022/01/04 11:19:07;;;;;;;33.92;15.45;;;7.50;99.90;;;;;;4998877;28;20022;-73
2022/01/04 11:21:35;;;;;;;33.95;15.70;;;7.50;99.90;;;;;;4995479;28;20373;-73
2022/01/04 11:24:06;;;;;;;30.88;15.38;;;7.50;99.90;;;;;;4997772;28;20035;-73
2022/01/04 11:26:33;;;;;;;;;;;7.50;99.90;;;;;;4996644;28;20030;-73
2022/01/04 11:28:59;;;;;;;31.38;13.52;;;7.50;99.90;;;;;;4994001;28;20350;-73
2022/01/04 11:31:51;;;;;;;30.67;13.95;;;7.50;99.90;;;;;;4994318;28;20034;-73
2022/01/04 11:34:47;;;;;;;23.90;9.40;;;7.50;99.90;;;;;;4977592;28;20031;-74
2022/01/04 11:37:21;;;;;;;15.70;7.18;;;7.40;99.90;;;;;;4997895;28;20532;-73
2022/01/04 11:39:47;;;;;;;14.68;5.93;;;7.40;99.90;;;;;;4981102;28;20105;-73
2022/01/04 11:42:37;;;;;;;12.00;4.18;;;7.40;99.90;;;;;;4997947;28;20129;-75
2022/01/04 11:45:07;;;;;;;10.83;2.87;;;7.40;99.90;;;;;;4975849;28;20088;-70
2022/01/04 11:47:35;;;;;;;5.82;2.40;;;7.40;99.90;;;;;;4972169;28;20105;-73
2022/01/04 11:50:20;;;;;;;7.68;2.42;;;7.30;99.90;;;;;;4970388;28;20392;-72
2022/01/04 11:52:59;;;;;;;10.15;2.42;;;7.30;99.90;;;;;;4975544;28;20037;-73
2022/01/04 11:55:29;;;;;;;7.45;2.40;;;7.20;99.90;;;;;;4994363;28;20623;-73
2022/01/04 11:58:03;;;;;;;10.00;2.47;;;7.20;99.90;;;;;;4990061;28;20061;-73
2022/01/04 12:00:33;;;;;;;8.05;2.78;;;7.10;99.90;;;;;;4989516;28;20104;-73
2022/01/04 12:03:02;;;;;;;8.57;2.35;;;7.10;99.90;;;;;;4988518;28;20022;-73
2022/01/04 12:05:28;;;;;;;10.38;1.85;;;7.10;99.90;;;;;;4989396;28;20068;-73
2022/01/04 12:07:57;;;;;;;6.68;2.08;;;7.10;99.90;;;;;;4975261;28;20105;-73
2022/01/04 12:10:23;;;;;;;5.18;2.17;;;7.10;99.90;;;;;;4996793;28;20026;-73
2022/01/04 12:13:09;;;;;;;10.52;2.10;;;7.10;99.90;;;;;;4986109;28;20092;-73
2022/01/04 12:15:38;;;;;;;9.93;2.28;;;7.10;99.90;;;;;;4978680;28;20133;-73
2022/01/04 12:18:04;;;;;;;10.20;2.63;;;7.00;99.90;;;;;;4992997;28;20030;-74
2022/01/04 12:20:42;;;;;;;10.43;2.65;;;7.00;99.90;;;;;;4966036;28;20031;-72
2022/01/04 12:23:26;;;;;;;7.47;2.90;;;7.00;99.90;;;;;;4985970;28;20030;-73
2022/01/04 12:26:14;;;;;;;10.50;2.50;;;7.10;99.90;;;;;;4998676;28;20117;-74
2022/01/04 12:28:45;;;;;;;8.15;2.55;;;7.00;99.90;;;;;;4995600;28;20392;-74
2022/01/04 12:31:17;;;;;;;7.70;2.45;;;7.00;99.90;;;;;;4993925;28;20027;-75
2022/01/04 12:33:50;;;;;;;12.98;3.38;;;6.90;99.90;;;;;;4997213;28;20026;-75
2022/01/04 12:36:38;;;;;;;17.95;3.30;;;6.90;99.90;;;;;;4966649;28;20412;-73
2022/01/04 12:39:33;;;;;;;10.23;3.10;;;6.80;99.90;;;;;;4994139;28;20027;-74
2022/01/04 12:41:59;;;;;;;5.82;2.10;;;6.80;99.90;;;;;;4972112;28;20043;-74
2022/01/04 12:44:27;;;;;;;10.73;1.80;;;6.70;99.90;;;;;;5002799;28;20033;-74
2022/01/04 12:46:53;;;;;;;6.97;1.83;;;6.70;99.90;;;;;;4982114;28;20109;-74
2022/01/04 12:49:22;;;;;;;7.90;1.45;;;6.70;99.90;;;;;;4995401;28;20030;-74
2022/01/04 12:51:52;;;;;;;6.47;1.40;;;6.60;99.90;;;;;;4996888;28;20022;-75
2022/01/04 12:54:23;;;;;;;4.20;1.20;;;6.70;99.90;;;;;;4987978;28;20025;-74